createdAt,value
2018-12-16T00:03:54.132Z,95362.00
2018-12-16T00:06:23.236Z,95372.00
2018-12-16T00:08:53.079Z,95378.00
2018-12-16T00:14:00.956Z,95369.00
2018-12-16T00:16:30.071Z,95359.00
2018-12-16T00:18:59.171Z,95373.00
2018-12-16T00:24:06.976Z,95374.00
2018-12-16T00:26:53.295Z,95363.00
2018-12-16T00:29:22.735Z,95354.00
2018-12-16T00:31:51.999Z,95346.00
2018-12-16T00:34:21.132Z,95344.00
2018-12-16T00:36:50.398Z,95341.00
2018-12-16T00:39:21.117Z,95332.00
2018-12-16T00:41:50.331Z,95339.00
2018-12-16T00:44:19.515Z,95337.00
2018-12-16T00:46:48.630Z,95344.00
2018-12-16T00:51:56.950Z,95349.00
2018-12-16T00:57:05.923Z,95317.00
2018-12-16T00:59:35.188Z,95328.00
2018-12-16T01:04:55.632Z,95309.00
2018-12-16T01:07:24.892Z,95307.00
2018-12-16T01:09:54.215Z,95295.00
2018-12-16T01:15:04.324Z,95286.00
2018-12-16T01:17:33.468Z,95297.00
2018-12-16T01:22:43.504Z,95272.00
2018-12-16T01:27:50.152Z,95249.00
2018-12-16T01:30:19.379Z,95256.00
2018-12-16T01:35:29.391Z,95235.00
2018-12-16T01:37:58.463Z,95241.00
2018-12-16T01:40:27.679Z,95243.00
2018-12-16T01:42:56.928Z,95219.00
2018-12-16T01:48:05.297Z,95211.00
2018-12-16T01:50:34.437Z,95209.00
2018-12-16T01:53:03.668Z,95208.00
2018-12-16T01:58:11.944Z,95206.00
2018-12-16T02:03:20.312Z,95223.00
2018-12-16T02:08:28.564Z,95217.00
2018-12-16T02:10:57.712Z,95205.00
2018-12-16T02:13:26.902Z,95205.00
2018-12-16T02:15:56.035Z,95203.00
2018-12-16T02:18:25.167Z,95191.00
2018-12-16T02:20:54.298Z,95207.00
2018-12-16T02:23:23.405Z,95183.00
2018-12-16T02:25:52.660Z,95184.00
2018-12-16T02:28:21.740Z,95182.00
2018-12-16T02:33:30.240Z,95178.00
2018-12-16T02:35:59.789Z,95186.00
2018-12-16T02:38:28.985Z,95179.00
2018-12-16T02:40:58.212Z,95166.00
2018-12-16T02:43:27.281Z,95166.00
2018-12-16T02:45:56.359Z,95161.00
2018-12-16T02:48:25.557Z,95159.00
2018-12-16T02:50:55.596Z,95161.00
2018-12-16T02:56:02.996Z,95157.00
2018-12-16T02:58:32.250Z,95157.00
2018-12-16T03:03:40.731Z,95154.00
2018-12-16T03:06:09.984Z,95147.00
2018-12-16T03:11:21.331Z,95131.00
2018-12-16T03:13:50.559Z,95134.00
2018-12-16T03:16:20.708Z,95147.00
2018-12-16T03:18:49.836Z,95142.00
2018-12-16T03:21:19.016Z,95141.00
2018-12-16T03:23:48.253Z,95130.00
2018-12-16T03:28:57.041Z,95145.00
2018-12-16T03:31:26.881Z,95151.00
2018-12-16T03:33:56.124Z,95148.00
2018-12-16T03:36:25.331Z,95125.00
2018-12-16T03:38:54.504Z,95126.00
2018-12-16T03:41:23.603Z,95109.00
2018-12-16T03:43:52.640Z,95120.00
2018-12-16T03:46:21.695Z,95112.00
2018-12-16T03:48:50.798Z,95117.00
2018-12-16T03:51:31.940Z,95108.00
2018-12-16T03:54:02.175Z,95095.00
2018-12-16T03:56:31.319Z,95107.00
2018-12-16T03:59:18.871Z,95104.00
2018-12-16T04:04:32.764Z,95103.00
2018-12-16T04:07:01.983Z,95105.00
2018-12-16T04:09:31.143Z,95107.00
2018-12-16T04:12:00.363Z,95082.00
2018-12-16T04:14:29.443Z,95088.00
2018-12-16T04:16:58.601Z,95075.00
2018-12-16T04:19:27.918Z,95090.00
2018-12-16T04:21:57.180Z,95083.00
2018-12-16T04:24:26.325Z,95082.00
2018-12-16T04:26:55.453Z,95092.00
2018-12-16T04:29:24.637Z,95085.00
2018-12-16T04:31:53.785Z,95097.00
2018-12-16T04:34:22.969Z,95098.00
2018-12-16T04:36:52.099Z,95090.00
2018-12-16T04:39:21.276Z,95094.00
2018-12-16T04:41:50.432Z,95096.00
2018-12-16T04:44:20.883Z,95093.00
2018-12-16T04:46:50.021Z,95115.00
2018-12-16T04:51:57.441Z,95078.00
2018-12-16T04:57:05.640Z,95087.00
2018-12-16T05:02:14.320Z,95088.00
2018-12-16T05:04:43.528Z,95078.00
2018-12-16T05:07:12.631Z,95086.00
2018-12-16T05:09:41.711Z,95079.00
2018-12-16T05:12:10.928Z,95077.00
2018-12-16T05:14:40.032Z,95076.00
2018-12-16T05:17:09.175Z,95065.00
2018-12-16T05:19:38.356Z,95078.00
2018-12-16T05:22:07.531Z,95076.00
2018-12-16T05:27:15.740Z,95056.00
2018-12-16T05:29:44.904Z,95068.00
2018-12-16T05:32:14.056Z,95081.00
2018-12-16T05:34:43.226Z,95080.00
2018-12-16T05:37:12.372Z,95063.00
2018-12-16T05:39:41.516Z,95052.00
2018-12-16T05:42:10.520Z,95057.00
2018-12-16T05:44:39.700Z,95064.00
2018-12-16T05:47:08.891Z,95050.00
2018-12-16T05:52:16.355Z,95071.00
2018-12-16T05:57:24.958Z,95066.00
2018-12-16T05:59:54.192Z,95076.00
2018-12-16T06:05:02.433Z,95054.00
2018-12-16T06:07:31.596Z,95062.00
2018-12-16T06:12:40.775Z,95048.00
2018-12-16T06:15:10.140Z,95042.00
2018-12-16T06:20:18.986Z,95033.00
2018-12-16T06:25:26.813Z,95031.00
2018-12-16T06:27:55.885Z,95036.00
2018-12-16T06:33:05.287Z,95036.00
2018-12-16T06:35:34.509Z,95023.00
2018-12-16T06:38:03.645Z,95013.00
2018-12-16T06:40:32.747Z,95022.00
2018-12-16T06:43:01.875Z,95011.00
2018-12-16T06:45:31.023Z,95008.00
2018-12-16T06:48:00.127Z,95001.00
2018-12-16T06:53:08.483Z,95014.00
2018-12-16T06:55:43.268Z,95014.00
2018-12-16T07:00:47.753Z,94999.00
2018-12-16T07:08:17.870Z,94993.00
2018-12-16T07:10:48.047Z,94984.00
2018-12-16T07:13:19.132Z,94992.00
2018-12-16T07:15:48.210Z,94992.00
2018-12-16T07:20:58.067Z,95006.00
2018-12-16T07:23:27.269Z,95012.00
2018-12-16T07:25:56.335Z,95017.00
2018-12-16T07:28:25.458Z,95018.00
2018-12-16T07:33:35.112Z,95025.00
2018-12-16T07:36:04.360Z,95028.00
2018-12-16T07:38:33.542Z,95019.00
2018-12-16T07:41:02.607Z,95013.00
2018-12-16T07:43:31.828Z,95007.00
2018-12-16T07:48:40.541Z,95026.00
2018-12-16T07:53:47.982Z,95028.00
2018-12-16T07:56:19.154Z,95044.00
2018-12-16T07:58:48.280Z,95049.00
2018-12-16T08:03:58.455Z,95036.00
2018-12-16T08:06:27.560Z,95040.00
2018-12-16T08:08:56.687Z,95043.00
2018-12-16T08:11:25.756Z,95052.00
2018-12-16T08:13:54.929Z,95045.00
2018-12-16T08:16:24.059Z,95050.00
2018-12-16T08:18:53.200Z,95037.00
2018-12-16T08:21:22.313Z,95035.00
2018-12-16T08:23:51.424Z,95024.00
2018-12-16T08:28:59.825Z,95025.00
2018-12-16T08:31:28.999Z,95027.00
2018-12-16T08:33:58.120Z,95031.00
2018-12-16T08:36:27.209Z,95032.00
2018-12-16T08:38:56.303Z,95041.00
2018-12-16T08:41:25.503Z,95035.00
2018-12-16T08:43:54.693Z,95033.00
2018-12-16T08:46:23.792Z,95025.00
2018-12-16T08:48:53.959Z,95045.00
2018-12-16T08:51:23.041Z,95036.00
2018-12-16T08:53:52.256Z,95024.00
2018-12-16T08:56:21.351Z,95030.00
2018-12-16T08:58:50.469Z,95025.00
2018-12-16T09:03:59.151Z,95006.00
2018-12-16T09:06:28.380Z,95007.00
2018-12-16T09:08:58.145Z,95023.00
2018-12-16T09:11:27.303Z,95019.00
2018-12-16T09:13:58.343Z,95021.00
2018-12-16T09:16:27.495Z,95009.00
2018-12-16T09:18:57.200Z,95018.00
2018-12-16T09:21:26.497Z,95020.00
2018-12-16T09:23:55.533Z,95012.00
2018-12-16T09:26:24.627Z,95007.00
2018-12-16T09:28:53.909Z,95010.00
2018-12-16T09:31:23.079Z,95024.00
2018-12-16T09:36:31.504Z,95031.00
2018-12-16T09:39:00.631Z,95025.00
2018-12-16T09:41:29.869Z,95017.00
2018-12-16T09:43:59.113Z,95007.00
2018-12-16T09:46:30.034Z,95024.00
2018-12-16T09:48:59.285Z,95017.00
2018-12-16T09:51:28.428Z,95020.00
2018-12-16T09:53:57.484Z,95000.00
2018-12-16T09:59:04.923Z,95019.00
2018-12-16T10:01:34.077Z,94994.00
2018-12-16T10:04:03.177Z,95016.00
2018-12-16T10:09:11.399Z,95001.00
2018-12-16T10:11:40.571Z,94999.00
2018-12-16T10:14:09.713Z,94998.00
2018-12-16T10:16:38.931Z,94990.00
2018-12-16T10:19:08.068Z,95005.00
2018-12-16T10:21:37.260Z,95018.00
2018-12-16T10:24:06.353Z,95025.00
2018-12-16T10:26:35.772Z,95007.00
2018-12-16T10:29:04.948Z,95018.00
2018-12-16T10:31:34.166Z,95029.00
2018-12-16T10:34:03.368Z,94998.00
2018-12-16T10:36:32.644Z,95031.00
2018-12-16T10:39:01.971Z,94991.00
2018-12-16T10:41:31.256Z,94999.00
2018-12-16T10:46:39.746Z,95005.00
2018-12-16T10:51:47.071Z,95015.00
2018-12-16T10:54:16.180Z,95002.00
2018-12-16T10:56:45.419Z,95018.00
2018-12-16T10:59:14.544Z,94998.00
2018-12-16T11:01:44.961Z,95000.00
2018-12-16T11:04:14.071Z,94995.00
2018-12-16T11:06:43.208Z,95002.00
2018-12-16T11:09:12.332Z,95004.00
2018-12-16T11:11:41.427Z,94998.00
2018-12-16T11:16:48.784Z,94995.00
2018-12-16T11:19:17.995Z,94988.00
2018-12-16T11:24:26.174Z,94985.00
2018-12-16T11:26:57.281Z,94986.00
2018-12-16T11:32:05.477Z,94978.00
2018-12-16T11:34:34.680Z,94980.00
2018-12-16T11:37:03.964Z,94967.00
2018-12-16T11:39:34.606Z,94974.00
2018-12-16T11:42:03.928Z,94975.00
2018-12-16T11:44:33.153Z,94984.00
2018-12-16T11:47:02.236Z,94983.00
2018-12-16T11:49:31.428Z,94990.00
2018-12-16T11:52:00.884Z,94998.00
2018-12-16T11:57:08.823Z,94989.00
2018-12-16T11:59:37.940Z,94993.00
2018-12-16T12:02:07.082Z,94988.00
2018-12-16T12:07:15.331Z,94988.00
2018-12-16T12:12:23.035Z,94977.00
2018-12-16T12:14:52.200Z,94971.00
2018-12-16T12:17:21.363Z,94981.00
2018-12-16T12:19:50.622Z,94960.00
2018-12-16T12:25:00.553Z,94967.00
2018-12-16T12:30:11.829Z,94955.00
2018-12-16T12:32:40.901Z,94969.00
2018-12-16T12:35:10.383Z,94983.00
2018-12-16T12:37:39.531Z,94974.00
2018-12-16T12:40:08.948Z,94971.00
2018-12-16T12:42:38.028Z,94971.00
2018-12-16T12:45:07.583Z,94965.00
2018-12-16T12:47:36.707Z,94967.00
2018-12-16T12:50:07.544Z,94980.00
2018-12-16T12:52:36.643Z,94981.00
2018-12-16T12:55:07.574Z,94984.00
2018-12-16T12:57:36.704Z,94986.00
2018-12-16T13:02:49.518Z,94989.00
2018-12-16T13:05:18.568Z,94991.00
2018-12-16T13:07:47.756Z,94990.00
2018-12-16T13:12:58.495Z,94990.00
2018-12-16T13:15:27.595Z,94992.00
2018-12-16T13:17:56.704Z,94992.00
2018-12-16T13:20:25.860Z,94987.00
2018-12-16T13:22:54.992Z,94985.00
2018-12-16T13:26:32.156Z,94990.00
2018-12-16T13:29:01.267Z,94982.00
2018-12-16T13:31:30.352Z,94991.00
2018-12-16T13:36:38.897Z,94976.00
2018-12-16T13:39:08.532Z,94985.00
2018-12-16T13:41:37.619Z,94994.00
2018-12-16T13:44:06.760Z,94992.00
2018-12-16T13:49:15.270Z,94986.00
2018-12-16T13:54:24.148Z,94998.00
2018-12-16T13:56:53.372Z,95004.00
2018-12-16T13:59:22.537Z,94998.00
2018-12-16T14:01:51.705Z,95011.00
2018-12-16T14:04:21.260Z,95001.00
2018-12-16T14:06:51.238Z,95005.00
2018-12-16T14:09:21.264Z,95021.00
2018-12-16T14:11:51.364Z,95014.00
2018-12-16T14:14:21.300Z,95012.00
2018-12-16T14:16:51.440Z,95011.00
2018-12-16T14:21:59.963Z,95037.00
2018-12-16T14:24:29.304Z,95036.00
2018-12-16T14:29:37.611Z,95049.00
2018-12-16T14:32:06.843Z,95054.00
2018-12-16T14:34:35.971Z,95049.00
2018-12-16T14:37:05.160Z,95070.00
2018-12-16T14:42:13.423Z,95071.00
2018-12-16T14:44:42.542Z,95063.00
2018-12-16T14:49:50.876Z,95057.00
2018-12-16T14:52:19.977Z,95057.00
2018-12-16T14:54:48.986Z,95056.00
2018-12-16T14:57:18.047Z,95055.00
2018-12-16T14:59:47.208Z,95050.00
2018-12-16T15:02:16.392Z,95045.00
2018-12-16T15:04:45.513Z,95055.00
2018-12-16T15:07:14.635Z,95052.00
2018-12-16T15:09:43.868Z,95058.00
2018-12-16T15:12:12.940Z,95067.00
2018-12-16T15:14:43.303Z,95072.00
2018-12-16T15:17:12.505Z,95077.00
2018-12-16T15:19:41.670Z,95080.00
2018-12-16T15:22:11.373Z,95078.00
2018-12-16T15:24:40.519Z,95076.00
2018-12-16T15:27:09.632Z,95089.00
2018-12-16T15:29:38.747Z,95074.00
2018-12-16T15:32:07.771Z,95077.00
2018-12-16T15:34:36.945Z,95071.00
2018-12-16T15:39:45.135Z,95063.00
2018-12-16T15:44:52.935Z,95074.00
2018-12-16T15:47:22.143Z,95085.00
2018-12-16T15:52:32.068Z,95085.00
2018-12-16T15:55:01.107Z,95085.00
2018-12-16T15:57:30.212Z,95072.00
2018-12-16T15:59:59.297Z,95079.00
2018-12-16T16:05:07.205Z,95093.00
2018-12-16T16:07:36.398Z,95102.00
2018-12-16T16:10:07.574Z,95101.00
2018-12-16T16:12:36.712Z,95104.00
2018-12-16T16:15:07.108Z,95117.00
2018-12-16T16:17:36.289Z,95095.00
2018-12-16T16:20:06.111Z,95095.00
2018-12-16T16:22:35.259Z,95101.00
2018-12-16T16:27:43.484Z,95105.00
2018-12-16T16:30:12.676Z,95105.00
2018-12-16T16:32:41.774Z,95105.00
2018-12-16T16:35:11.015Z,95106.00
2018-12-16T16:40:19.056Z,95120.00
2018-12-16T16:45:27.192Z,95121.00
2018-12-16T16:47:56.267Z,95116.00
2018-12-16T16:50:25.372Z,95110.00
2018-12-16T16:52:54.536Z,95115.00
2018-12-16T16:55:24.516Z,95114.00
2018-12-16T16:57:53.924Z,95115.00
2018-12-16T17:03:02.420Z,95127.00
2018-12-16T17:05:31.596Z,95134.00
2018-12-16T17:08:00.696Z,95135.00
2018-12-16T17:10:29.820Z,95132.00
2018-12-16T17:15:38.344Z,95139.00
2018-12-16T17:18:07.446Z,95139.00
2018-12-16T17:23:15.792Z,95158.00
2018-12-16T17:25:48.311Z,95159.00
2018-12-16T17:30:55.231Z,95150.00
2018-12-16T17:33:24.283Z,95144.00
2018-12-16T17:35:53.435Z,95139.00
2018-12-16T17:38:23.253Z,95155.00
2018-12-16T17:40:54.096Z,95163.00
2018-12-16T17:43:23.284Z,95166.00
2018-12-16T17:45:53.467Z,95163.00
2018-12-16T17:48:23.275Z,95161.00
2018-12-16T17:53:31.128Z,95169.00
2018-12-16T17:56:00.579Z,95152.00
2018-12-16T18:01:09.194Z,95160.00
2018-12-16T18:03:38.262Z,95162.00
2018-12-16T18:06:07.456Z,95150.00
2018-12-16T18:08:36.603Z,95153.00
2018-12-16T18:11:05.852Z,95144.00
2018-12-16T18:13:35.037Z,95147.00
2018-12-16T18:16:04.217Z,95147.00
2018-12-16T18:18:33.323Z,95157.00
2018-12-16T18:21:02.537Z,95152.00
2018-12-16T18:23:31.676Z,95158.00
2018-12-16T18:26:00.744Z,95157.00
2018-12-16T18:28:29.947Z,95159.00
2018-12-16T18:30:59.028Z,95165.00
2018-12-16T18:33:28.568Z,95159.00
2018-12-16T18:35:57.696Z,95152.00
2018-12-16T18:41:06.511Z,95154.00
2018-12-16T18:43:35.930Z,95148.00
2018-12-16T18:46:05.091Z,95158.00
2018-12-16T18:48:34.172Z,95152.00
2018-12-16T18:51:03.243Z,95147.00
2018-12-16T18:53:32.315Z,95148.00
2018-12-16T18:56:01.362Z,95157.00
2018-12-16T18:58:30.428Z,95153.00
2018-12-16T19:03:38.580Z,95159.00
2018-12-16T19:06:08.785Z,95168.00
2018-12-16T19:08:37.858Z,95171.00
2018-12-16T19:11:06.893Z,95181.00
2018-12-16T19:13:37.277Z,95168.00
2018-12-16T19:16:06.371Z,95172.00
2018-12-16T19:18:36.066Z,95166.00
2018-12-16T19:21:05.992Z,95167.00
2018-12-16T19:23:35.234Z,95163.00
2018-12-16T19:26:04.408Z,95152.00
2018-12-16T19:28:33.626Z,95153.00
2018-12-16T19:31:02.680Z,95166.00
2018-12-16T19:36:10.865Z,95177.00
2018-12-16T19:38:40.042Z,95183.00
2018-12-16T19:43:47.787Z,95176.00
2018-12-16T19:48:56.981Z,95172.00
2018-12-16T19:51:26.184Z,95170.00
2018-12-16T19:53:55.260Z,95177.00
2018-12-16T19:56:25.895Z,95177.00
2018-12-16T19:58:55.199Z,95173.00
2018-12-16T20:01:24.644Z,95187.00
2018-12-16T20:06:47.724Z,95185.00
2018-12-16T20:09:17.876Z,95190.00
2018-12-16T20:11:47.024Z,95212.00
2018-12-16T20:14:16.146Z,95201.00
2018-12-16T20:16:45.379Z,95208.00
2018-12-16T20:19:14.437Z,95208.00
2018-12-16T20:21:43.632Z,95225.00
2018-12-16T20:24:12.736Z,95218.00
2018-12-16T20:26:41.767Z,95217.00
2018-12-16T20:29:11.041Z,95213.00
2018-12-16T20:31:40.404Z,95212.00
2018-12-16T20:36:48.043Z,95205.00
2018-12-16T20:39:18.031Z,95206.00
2018-12-16T20:41:47.048Z,95211.00
2018-12-16T20:44:17.311Z,95210.00
2018-12-16T20:46:46.376Z,95214.00
2018-12-16T20:49:15.403Z,95213.00
2018-12-16T20:51:44.459Z,95224.00
2018-12-16T20:56:51.730Z,95218.00
2018-12-16T20:59:20.810Z,95222.00
2018-12-16T21:04:29.080Z,95210.00
2018-12-16T21:06:58.204Z,95214.00
2018-12-16T21:09:28.430Z,95211.00
2018-12-16T21:12:04.098Z,95212.00
2018-12-16T21:14:38.458Z,95209.00
2018-12-16T21:17:12.844Z,95205.00
2018-12-16T21:19:42.077Z,95215.00
2018-12-16T21:22:12.140Z,95216.00
2018-12-16T21:24:41.364Z,95210.00
2018-12-16T21:27:10.721Z,95206.00
2018-12-16T21:29:39.717Z,95209.00
2018-12-16T21:32:08.710Z,95195.00
2018-12-16T21:34:37.776Z,95201.00
2018-12-16T21:37:06.886Z,95209.00
2018-12-16T21:39:36.001Z,95211.00
2018-12-16T21:42:05.165Z,95211.00
2018-12-16T21:44:34.189Z,95198.00
2018-12-16T21:47:04.245Z,95201.00
2018-12-16T21:49:33.356Z,95204.00
2018-12-16T21:54:41.527Z,95198.00
2018-12-16T21:59:49.959Z,95202.00
2018-12-16T22:02:19.103Z,95190.00
2018-12-16T22:04:48.175Z,95186.00
2018-12-16T22:07:17.904Z,95190.00
2018-12-16T22:12:25.692Z,95194.00
2018-12-16T22:14:55.801Z,95189.00
2018-12-16T22:17:27.143Z,95195.00
2018-12-16T22:19:56.348Z,95207.00
2018-12-16T22:22:26.282Z,95195.00
2018-12-16T22:24:56.219Z,95193.00
2018-12-16T22:27:26.342Z,95193.00
2018-12-16T22:29:56.284Z,95201.00
2018-12-16T22:32:26.363Z,95201.00
2018-12-16T22:34:56.280Z,95205.00
2018-12-16T22:37:26.600Z,95194.00
2018-12-16T22:39:57.785Z,95211.00
2018-12-16T22:42:26.793Z,95207.00
2018-12-16T22:44:57.030Z,95220.00
2018-12-16T22:50:07.312Z,95219.00
2018-12-16T22:52:36.287Z,95217.00
2018-12-16T22:55:06.299Z,95216.00
2018-12-16T22:57:36.450Z,95219.00
2018-12-16T23:00:09.920Z,95228.00
2018-12-16T23:02:39.204Z,95237.00
2018-12-16T23:05:08.548Z,95229.00
2018-12-16T23:10:16.907Z,95218.00
2018-12-16T23:12:46.127Z,95223.00
2018-12-16T23:15:15.228Z,95203.00
2018-12-16T23:17:44.476Z,95214.00
2018-12-16T23:20:19.756Z,95217.00
2018-12-16T23:22:49.365Z,95223.00
2018-12-16T23:25:18.547Z,95212.00
2018-12-16T23:27:53.972Z,95214.00
2018-12-16T23:30:19.980Z,95211.00
2018-12-16T23:32:49.060Z,95220.00
2018-12-16T23:35:18.087Z,95219.00
2018-12-16T23:37:47.309Z,95230.00
2018-12-16T23:40:16.509Z,95213.00
2018-12-16T23:42:45.610Z,95218.00
2018-12-16T23:45:14.703Z,95208.00
2018-12-16T23:50:22.867Z,95209.00
2018-12-16T23:52:51.858Z,95211.00
2018-12-16T23:55:21.100Z,95210.00
2018-12-16T23:57:50.184Z,95208.00
